createdAt,value
2019-04-11T00:00:17.473Z,6.80
2019-04-11T00:01:17.051Z,6.30
2019-04-11T00:02:17.041Z,6.50
2019-04-11T00:03:17.440Z,6.20
2019-04-11T00:04:17.736Z,6.60
2019-04-11T00:05:17.002Z,5.40
2019-04-11T00:06:17.250Z,8.30
2019-04-11T00:07:16.986Z,6.30
2019-04-11T00:08:17.584Z,5.70
2019-04-11T00:09:16.961Z,5.80
2019-04-11T00:10:17.271Z,8.70
2019-04-11T00:11:17.704Z,8.10
2019-04-11T00:12:16.936Z,7.70
2019-04-11T00:13:23.398Z,5.60
2019-04-11T00:14:17.876Z,5.60
2019-04-11T00:15:16.901Z,5.80
2019-04-11T00:16:17.230Z,6.40
2019-04-11T00:17:17.497Z,6.70
2019-04-11T00:18:16.871Z,5.40
2019-04-11T00:19:16.865Z,7.10
2019-04-11T00:20:17.989Z,7.70
2019-04-11T00:21:17.063Z,5.40
2019-04-11T00:22:17.396Z,5.30
2019-04-11T00:23:16.817Z,5.90
2019-04-11T00:24:16.806Z,6.50
2019-04-11T00:25:17.708Z,6.00
2019-04-11T00:26:17.048Z,6.70
2019-04-11T00:27:17.117Z,7.50
2019-04-11T00:28:17.400Z,6.70
2019-04-11T00:29:16.764Z,5.90
2019-04-11T00:30:17.818Z,7.70
2019-04-11T00:31:16.816Z,5.60
2019-04-11T00:32:17.143Z,6.20
2019-04-11T00:33:16.719Z,5.90
2019-04-11T00:34:16.709Z,5.80
2019-04-11T00:35:17.591Z,6.00
2019-04-11T00:36:16.684Z,5.90
2019-04-11T00:37:16.947Z,4.90
2019-04-11T00:38:16.661Z,4.90
2019-04-11T00:39:16.654Z,6.60
2019-04-11T00:40:17.305Z,6.60
2019-04-11T00:41:17.566Z,7.10
2019-04-11T00:42:16.654Z,4.90
2019-04-11T00:43:29.912Z,5.30
2019-04-11T00:44:16.911Z,6.10
2019-04-11T00:45:16.598Z,7.20
2019-04-11T00:46:16.585Z,6.30
2019-04-11T00:47:17.168Z,6.10
2019-04-11T00:48:17.540Z,5.60
2019-04-11T00:49:16.544Z,5.10
2019-04-11T00:50:16.534Z,6.90
2019-04-11T00:51:17.631Z,5.70
2019-04-11T00:52:16.525Z,7.20
2019-04-11T00:53:16.511Z,8.20
2019-04-11T00:54:16.501Z,6.70
2019-04-11T00:55:17.546Z,5.60
2019-04-11T00:56:16.476Z,7.10
2019-04-11T00:57:16.873Z,9.40
2019-04-11T00:58:17.179Z,7.20
2019-04-11T00:59:16.442Z,8.00
2019-04-11T01:00:16.432Z,6.10
2019-04-11T01:01:17.651Z,5.80
2019-04-11T01:02:17.606Z,6.20
2019-04-11T01:03:16.402Z,6.30
2019-04-11T01:04:16.394Z,6.80
2019-04-11T01:05:17.229Z,5.40
2019-04-11T01:06:16.370Z,5.60
2019-04-11T01:07:16.591Z,5.00
2019-04-11T01:08:16.348Z,6.60
2019-04-11T01:09:16.337Z,6.70
2019-04-11T01:10:16.325Z,5.30
2019-04-11T01:11:16.321Z,7.00
2019-04-11T01:12:16.578Z,5.40
2019-04-11T01:13:17.513Z,7.80
2019-04-11T01:14:17.347Z,7.50
2019-04-11T01:15:17.460Z,7.30
2019-04-11T01:16:16.265Z,6.10
2019-04-11T01:17:16.982Z,6.50
2019-04-11T01:18:16.241Z,6.40
2019-04-11T01:19:16.375Z,7.30
2019-04-11T01:20:17.398Z,7.50
2019-04-11T01:21:16.205Z,6.60
2019-04-11T01:22:16.234Z,5.40
2019-04-11T01:23:16.187Z,6.70
2019-04-11T01:24:16.179Z,5.70
2019-04-11T01:25:16.701Z,6.90
2019-04-11T01:26:17.003Z,6.50
2019-04-11T01:27:16.143Z,7.00
2019-04-11T01:28:16.133Z,7.50
2019-04-11T01:29:16.126Z,5.50
2019-04-11T01:30:16.115Z,6.40
2019-04-11T01:31:16.102Z,6.90
2019-04-11T01:32:16.090Z,7.30
2019-04-11T01:33:16.077Z,5.70
2019-04-11T01:34:16.241Z,8.20
2019-04-11T01:35:17.200Z,7.20
2019-04-11T01:36:16.048Z,6.80
2019-04-11T01:37:16.037Z,6.30
2019-04-11T01:38:16.478Z,6.50
2019-04-11T01:39:16.854Z,5.70
2019-04-11T01:40:16.000Z,5.70
2019-04-11T01:41:15.991Z,5.70
2019-04-11T01:42:16.747Z,5.50
2019-04-11T01:43:15.974Z,6.30
2019-04-11T01:44:16.527Z,5.50
2019-04-11T01:45:16.963Z,6.40
2019-04-11T01:46:16.139Z,6.70
2019-04-11T01:47:15.934Z,7.00
2019-04-11T01:48:15.920Z,6.30
2019-04-11T01:49:16.359Z,6.00
2019-04-11T01:50:16.840Z,6.70
2019-04-11T01:51:15.884Z,9.70
2019-04-11T01:52:16.046Z,7.10
2019-04-11T01:53:17.094Z,6.20
2019-04-11T01:54:15.849Z,7.40
2019-04-11T01:55:16.454Z,6.90
2019-04-11T01:56:16.874Z,6.20
2019-04-11T01:57:15.925Z,5.80
2019-04-11T01:58:16.318Z,6.30
2019-04-11T01:59:15.794Z,5.80
2019-04-11T02:00:15.783Z,7.00
2019-04-11T02:01:16.811Z,5.90
2019-04-11T02:02:15.765Z,6.30
2019-04-11T02:03:15.749Z,7.20
2019-04-11T02:04:16.038Z,9.90
2019-04-11T02:05:16.655Z,7.10
2019-04-11T02:06:15.971Z,8.30
2019-04-11T02:07:15.712Z,6.30
2019-04-11T02:08:15.701Z,6.80
2019-04-11T02:09:15.940Z,5.90
2019-04-11T02:10:16.803Z,5.60
2019-04-11T02:11:15.665Z,6.90
2019-04-11T02:12:16.285Z,8.00
2019-04-11T02:13:15.638Z,6.30
2019-04-11T02:14:17.833Z,7.70
2019-04-11T02:15:16.465Z,8.10
2019-04-11T02:16:16.722Z,5.20
2019-04-11T02:17:16.595Z,8.00
2019-04-11T02:18:15.583Z,8.50
2019-04-11T02:19:16.230Z,8.30
2019-04-11T02:20:16.617Z,6.70
2019-04-11T02:21:15.700Z,6.00
2019-04-11T02:22:15.959Z,6.00
2019-04-11T02:23:15.530Z,7.00
2019-04-11T02:24:15.521Z,6.50
2019-04-11T02:25:16.426Z,6.50
2019-04-11T02:26:16.716Z,7.20
2019-04-11T02:27:15.491Z,5.90
2019-04-11T02:28:15.479Z,7.60
2019-04-11T02:29:15.465Z,6.50
2019-04-11T02:30:16.758Z,5.90
2019-04-11T02:31:17.158Z,6.30
2019-04-11T02:32:15.790Z,7.90
2019-04-11T02:33:16.430Z,6.90
2019-04-11T02:34:16.043Z,8.70
2019-04-11T02:35:15.920Z,6.70
2019-04-11T02:36:16.652Z,6.90
2019-04-11T02:37:15.374Z,7.00
2019-04-11T02:38:16.498Z,6.30
2019-04-11T02:39:17.618Z,6.20
2019-04-11T02:40:15.515Z,7.40
2019-04-11T02:41:16.985Z,8.30
2019-04-11T02:42:16.864Z,8.50
2019-04-11T02:43:17.391Z,6.50
2019-04-11T02:44:31.982Z,7.60
2019-04-11T02:45:27.161Z,7.50
2019-04-11T02:46:23.295Z,11.20
2019-04-11T02:47:20.280Z,8.00
2019-04-11T02:48:16.332Z,7.60
2019-04-11T02:49:16.862Z,6.60
2019-04-11T02:50:18.596Z,7.00
2019-04-11T02:51:15.253Z,6.50
2019-04-11T02:52:15.278Z,6.70
2019-04-11T02:53:16.803Z,7.50
2019-04-11T02:54:15.995Z,5.90
2019-04-11T02:55:17.006Z,7.60
2019-04-11T02:56:15.161Z,6.40
2019-04-11T02:57:16.351Z,7.30
2019-04-11T02:58:15.294Z,7.60
2019-04-11T02:59:15.475Z,8.00
2019-04-11T03:00:15.891Z,7.40
2019-04-11T03:01:15.596Z,6.50
2019-04-11T03:02:17.567Z,6.30
2019-04-11T03:03:15.726Z,8.30
2019-04-11T03:04:16.614Z,8.10
2019-04-11T03:05:16.311Z,7.10
2019-04-11T03:06:15.346Z,7.10
2019-04-11T03:07:16.412Z,6.60
2019-04-11T03:08:18.947Z,7.10
2019-04-11T03:09:15.513Z,8.40
2019-04-11T03:10:16.424Z,7.90
2019-04-11T03:11:16.563Z,6.80
2019-04-11T03:12:15.488Z,7.80
2019-04-11T03:13:16.544Z,6.30
2019-04-11T03:14:16.903Z,6.90
2019-04-11T03:15:31.709Z,6.70
2019-04-11T03:16:30.010Z,7.60
2019-04-11T03:17:21.259Z,6.90
2019-04-11T03:18:39.186Z,7.20
2019-04-11T03:19:29.592Z,6.60
2019-04-11T03:20:23.964Z,6.70
2019-04-11T03:21:20.332Z,6.60
2019-04-11T03:22:16.111Z,7.20
2019-04-11T03:23:18.504Z,7.60
2019-04-11T03:24:15.475Z,9.50
2019-04-11T03:25:15.715Z,9.10
2019-04-11T03:26:16.742Z,7.40
2019-04-11T03:27:15.440Z,6.80
2019-04-11T03:28:21.090Z,7.40
2019-04-11T03:29:15.539Z,7.00
2019-04-11T03:30:17.197Z,7.50
2019-04-11T03:31:59.603Z,8.00
2019-04-11T03:33:00.604Z,8.60
2019-04-11T03:37:08.710Z,7.50
2019-04-11T03:37:37.312Z,7.80
2019-04-11T03:38:38.153Z,7.50
2019-04-11T03:39:32.728Z,7.60
2019-04-11T03:40:30.487Z,7.10
2019-04-11T03:41:26.744Z,7.30
2019-04-11T03:42:34.216Z,6.50
2019-04-11T03:43:28.016Z,7.70
2019-04-11T03:44:23.443Z,8.00
2019-04-11T03:45:33.222Z,8.60
2019-04-11T03:46:33.932Z,8.20
2019-04-11T03:47:29.248Z,7.80
2019-04-11T03:48:29.177Z,7.60
2019-04-11T03:49:25.214Z,7.90
2019-04-11T03:50:18.868Z,7.90
2019-04-11T03:51:14.941Z,9.10
2019-04-11T03:52:14.983Z,7.50
2019-04-11T03:53:14.575Z,6.50
2019-04-11T03:54:15.728Z,7.10
2019-04-11T03:55:15.295Z,7.50
2019-04-11T03:56:16.279Z,9.30
2019-04-11T03:57:15.743Z,7.40
2019-04-11T03:58:15.483Z,7.50
2019-04-11T03:59:16.571Z,9.60
2019-04-11T04:00:15.569Z,8.80
2019-04-11T04:01:16.139Z,8.10
2019-04-11T04:02:15.521Z,7.10
2019-04-11T04:03:14.405Z,8.40
2019-04-11T04:04:15.462Z,9.20
2019-04-11T04:05:15.288Z,8.30
2019-04-11T04:06:14.856Z,7.80
2019-04-11T04:07:16.550Z,9.80
2019-04-11T04:08:14.342Z,8.70
2019-04-11T04:09:16.346Z,7.20
2019-04-11T04:10:15.719Z,10.30
2019-04-11T04:11:14.962Z,10.90
2019-04-11T04:12:15.541Z,8.00
2019-04-11T04:13:16.895Z,8.20
2019-04-11T04:14:15.039Z,7.40
2019-04-11T04:15:31.296Z,7.70
2019-04-11T04:16:21.920Z,9.20
2019-04-11T04:17:14.889Z,8.20
2019-04-11T04:18:15.132Z,8.40
2019-04-11T04:19:16.207Z,7.90
2019-04-11T04:20:15.171Z,8.00
2019-04-11T04:21:15.551Z,7.70
2019-04-11T04:22:15.803Z,7.60
2019-04-11T04:23:14.270Z,7.50
2019-04-11T04:24:14.552Z,8.70
2019-04-11T04:25:14.327Z,7.50
2019-04-11T04:26:14.741Z,8.40
2019-04-11T04:27:15.428Z,0.70
2019-04-11T04:28:15.646Z,3.90
2019-04-11T04:29:15.447Z,1.60
2019-04-11T04:30:15.913Z,7.20
2019-04-11T04:31:14.151Z,8.60
2019-04-11T04:32:14.309Z,8.90
2019-04-11T04:33:14.557Z,7.20
2019-04-11T04:34:15.416Z,0.50
2019-04-11T04:35:17.622Z,7.50
2019-04-11T04:36:15.986Z,8.50
2019-04-11T04:37:14.706Z,8.80
2019-04-11T04:38:15.573Z,9.80
2019-04-11T04:39:14.002Z,7.60
2019-04-11T04:40:31.558Z,8.00
2019-04-11T04:41:22.568Z,10.90
2019-04-11T04:42:24.245Z,8.50
2019-04-11T04:43:14.642Z,9.60
2019-04-11T04:44:14.405Z,8.00
2019-04-11T04:45:16.046Z,8.40
2019-04-11T04:46:31.358Z,8.40
2019-04-11T04:47:23.756Z,8.10
2019-04-11T04:48:16.460Z,7.30
2019-04-11T04:49:15.299Z,8.40
2019-04-11T04:50:13.895Z,9.30
2019-04-11T04:51:16.172Z,9.20
2019-04-11T04:52:14.491Z,7.60
2019-04-11T04:53:13.871Z,9.60
2019-04-11T04:54:14.264Z,8.50
2019-04-11T04:55:13.799Z,11.30
2019-04-11T04:56:15.405Z,8.00
2019-04-11T04:57:15.398Z,9.40
2019-04-11T04:58:15.667Z,10.80
2019-04-11T04:59:14.608Z,9.20
2019-04-11T05:00:14.784Z,8.30
2019-04-11T05:01:15.179Z,8.20
2019-04-11T05:02:14.974Z,8.30
2019-04-11T05:03:13.706Z,8.80
2019-04-11T05:04:15.620Z,8.70
2019-04-11T05:05:14.070Z,8.80
2019-04-11T05:06:14.155Z,8.40
2019-04-11T05:07:15.100Z,7.80
2019-04-11T05:08:14.504Z,7.70
2019-04-11T05:09:14.682Z,8.00
2019-04-11T05:10:15.347Z,9.20
2019-04-11T05:11:14.050Z,9.40
2019-04-11T05:12:13.886Z,8.90
2019-04-11T05:13:15.106Z,10.00
2019-04-11T05:14:14.684Z,8.60
2019-04-11T05:15:14.533Z,10.90
2019-04-11T05:16:17.500Z,8.70
2019-04-11T05:17:14.874Z,7.80
2019-04-11T05:18:15.677Z,10.30
2019-04-11T05:19:13.522Z,8.00
2019-04-11T05:20:14.047Z,7.80
2019-04-11T05:21:13.496Z,7.90
2019-04-11T05:22:14.637Z,10.10
2019-04-11T05:23:13.929Z,8.80
2019-04-11T05:24:14.515Z,9.60
2019-04-11T05:25:14.687Z,8.80
2019-04-11T05:26:13.439Z,9.20
2019-04-11T05:27:14.453Z,8.90
2019-04-11T05:28:14.009Z,9.30
2019-04-11T05:29:13.410Z,8.40
2019-04-11T05:30:14.554Z,7.80
2019-04-11T05:31:14.368Z,9.20
2019-04-11T05:32:13.421Z,8.20
2019-04-11T05:33:13.651Z,9.80
2019-04-11T05:34:13.971Z,7.80
2019-04-11T05:35:14.383Z,9.50
2019-04-11T05:36:14.385Z,8.00
2019-04-11T05:37:13.322Z,7.50
2019-04-11T05:38:13.528Z,9.60
2019-04-11T05:39:15.559Z,8.60
2019-04-11T05:40:13.295Z,6.90
2019-04-11T05:41:13.846Z,8.00
2019-04-11T05:42:15.982Z,7.60
2019-04-11T05:43:13.540Z,8.70
2019-04-11T05:44:13.260Z,7.60
2019-04-11T05:45:18.284Z,7.60
2019-04-11T05:46:26.362Z,8.30
2019-04-11T05:47:18.134Z,6.90
2019-04-11T05:48:13.634Z,7.60
2019-04-11T05:49:13.473Z,8.30
2019-04-11T05:50:13.760Z,7.00
2019-04-11T05:51:13.208Z,7.90
2019-04-11T05:52:13.202Z,10.40
2019-04-11T05:53:13.591Z,7.20
2019-04-11T05:54:14.147Z,8.00
2019-04-11T05:55:13.749Z,6.70
2019-04-11T05:56:16.104Z,8.90
2019-04-11T05:57:13.310Z,7.50
2019-04-11T05:58:14.347Z,9.00
2019-04-11T05:59:15.123Z,7.50
2019-04-11T06:00:13.837Z,6.80
2019-04-11T06:01:14.504Z,6.60
2019-04-11T06:02:13.139Z,8.60
2019-04-11T06:03:13.411Z,7.90
2019-04-11T06:04:16.164Z,8.80
2019-04-11T06:05:13.284Z,6.70
2019-04-11T06:06:13.120Z,7.70
2019-04-11T06:07:13.166Z,7.80
2019-04-11T06:08:21.358Z,6.70
2019-04-11T06:09:15.858Z,7.60
2019-04-11T06:10:14.381Z,7.80
2019-04-11T06:11:16.438Z,7.20
2019-04-11T06:12:13.670Z,7.30
2019-04-11T06:13:13.088Z,7.30
2019-04-11T06:14:13.176Z,8.70
2019-04-11T06:15:13.545Z,8.60
2019-04-11T06:16:13.076Z,7.10
2019-04-11T06:17:14.243Z,8.30
2019-04-11T06:18:25.167Z,6.90
2019-04-11T06:19:13.067Z,6.90
2019-04-11T06:20:14.354Z,10.20
2019-04-11T06:21:13.063Z,8.70
2019-04-11T06:22:13.062Z,6.50
2019-04-11T06:23:13.068Z,7.70
2019-04-11T06:24:14.170Z,6.50
2019-04-11T06:25:14.147Z,7.10
2019-04-11T06:26:13.355Z,7.00
2019-04-11T06:27:14.283Z,10.10
2019-04-11T06:28:13.867Z,6.90
2019-04-11T06:29:17.434Z,7.00
2019-04-11T06:30:13.041Z,7.60
2019-04-11T06:31:13.771Z,6.20
2019-04-11T06:32:13.843Z,7.10
2019-04-11T06:33:13.133Z,6.70
2019-04-11T06:34:13.385Z,6.90
2019-04-11T06:35:13.573Z,7.60
2019-04-11T06:36:13.845Z,6.50
2019-04-11T06:37:13.898Z,7.90
2019-04-11T06:38:13.041Z,9.40
2019-04-11T06:39:13.878Z,8.00
2019-04-11T06:40:13.039Z,7.90
2019-04-11T06:41:13.035Z,7.40
2019-04-11T06:42:13.037Z,6.60
2019-04-11T06:43:13.922Z,7.50
2019-04-11T06:44:13.038Z,7.90
2019-04-11T06:45:13.499Z,7.00
2019-04-11T06:46:13.264Z,8.20
2019-04-11T06:47:13.033Z,7.40
2019-04-11T06:48:13.577Z,6.50
2019-04-11T06:49:14.030Z,7.60
2019-04-11T06:50:13.230Z,7.60
2019-04-11T06:51:13.593Z,7.20
2019-04-11T06:52:13.037Z,6.80
2019-04-11T06:53:13.038Z,6.50
2019-04-11T06:54:13.044Z,7.40
2019-04-11T06:55:13.045Z,9.30
2019-04-11T06:56:13.048Z,7.90
2019-04-11T06:57:13.975Z,10.00
2019-04-11T06:58:13.047Z,7.40
2019-04-11T06:59:14.320Z,8.70
2019-04-11T07:00:13.045Z,9.20
2019-04-11T07:01:13.985Z,8.80
2019-04-11T07:02:18.006Z,7.50
2019-04-11T07:03:22.314Z,8.60
2019-04-11T07:04:13.505Z,8.90
2019-04-11T07:05:13.996Z,7.70
2019-04-11T07:06:13.350Z,7.20
2019-04-11T07:07:13.053Z,7.30
2019-04-11T07:08:13.806Z,7.40
2019-04-11T07:09:13.058Z,8.00
2019-04-11T07:10:13.742Z,7.60
2019-04-11T07:11:13.521Z,8.90
2019-04-11T07:12:13.367Z,7.40
2019-04-11T07:13:14.163Z,7.40
2019-04-11T07:14:13.060Z,7.80
2019-04-11T07:15:14.096Z,7.60
2019-04-11T07:16:13.367Z,7.90
2019-04-11T07:17:13.782Z,8.60
2019-04-11T07:18:14.097Z,7.10
2019-04-11T07:19:13.471Z,7.80
2019-04-11T07:20:13.093Z,7.80
2019-04-11T07:21:13.085Z,7.60
2019-04-11T07:22:13.233Z,10.70
2019-04-11T07:23:13.611Z,7.90
2019-04-11T07:24:13.872Z,10.50
2019-04-11T07:25:13.096Z,8.30
2019-04-11T07:26:13.231Z,8.10
2019-04-11T07:27:13.754Z,7.80
2019-04-11T07:28:14.386Z,7.10
2019-04-11T07:29:13.113Z,7.90
2019-04-11T07:30:13.480Z,9.10
2019-04-11T07:31:13.109Z,11.20
2019-04-11T07:32:13.551Z,8.20
2019-04-11T07:33:13.116Z,8.30
2019-04-11T07:34:13.125Z,9.10
2019-04-11T07:35:13.137Z,8.90
2019-04-11T07:36:13.131Z,8.40
2019-04-11T07:37:13.132Z,8.50
2019-04-11T07:38:13.946Z,8.80
2019-04-11T07:39:14.539Z,8.60
2019-04-11T07:40:13.230Z,10.00
2019-04-11T07:41:13.147Z,8.50
2019-04-11T07:42:13.656Z,10.00
2019-04-11T07:43:13.912Z,8.00
2019-04-11T07:44:13.192Z,8.80
2019-04-11T07:45:14.640Z,8.60
2019-04-11T07:46:13.163Z,7.70
2019-04-11T07:47:18.831Z,8.60
2019-04-11T07:48:13.178Z,10.10
2019-04-11T07:49:13.182Z,8.40
2019-04-11T07:50:15.595Z,7.90
2019-04-11T07:51:13.219Z,9.10
2019-04-11T07:52:13.209Z,8.60
2019-04-11T07:53:13.203Z,8.90
2019-04-11T07:54:13.694Z,10.50
2019-04-11T07:55:13.206Z,9.00
2019-04-11T07:56:13.238Z,10.70
2019-04-11T07:57:13.213Z,8.40
2019-04-11T07:58:13.231Z,9.60
2019-04-11T07:59:13.228Z,11.90
2019-04-11T08:00:13.233Z,9.40
2019-04-11T08:01:13.237Z,8.40
2019-04-11T08:02:13.241Z,8.90
2019-04-11T08:03:14.400Z,9.60
2019-04-11T08:04:13.247Z,8.80
2019-04-11T08:05:13.299Z,9.20
2019-04-11T08:06:13.370Z,9.40
2019-04-11T08:07:13.270Z,9.80
2019-04-11T08:08:13.441Z,9.10
2019-04-11T08:09:13.278Z,8.80
2019-04-11T08:10:13.282Z,8.80
2019-04-11T08:11:13.579Z,9.10
2019-04-11T08:12:13.298Z,9.50
2019-04-11T08:13:14.332Z,9.40
2019-04-11T08:14:13.309Z,9.40
2019-04-11T08:15:13.418Z,9.20
2019-04-11T08:16:13.319Z,9.00
2019-04-11T08:17:25.434Z,10.50
2019-04-11T08:18:14.617Z,9.50
2019-04-11T08:19:13.337Z,9.00
2019-04-11T08:20:13.343Z,9.20
2019-04-11T08:21:14.288Z,10.90
2019-04-11T08:22:13.357Z,9.20
2019-04-11T08:23:13.800Z,9.30
2019-04-11T08:24:13.367Z,9.20
2019-04-11T08:25:13.376Z,10.80
2019-04-11T08:26:13.683Z,10.30
2019-04-11T08:27:13.453Z,10.10
2019-04-11T08:28:14.084Z,9.90
2019-04-11T08:29:15.579Z,9.50
2019-04-11T08:30:13.413Z,9.50
2019-04-11T08:31:13.414Z,10.10
2019-04-11T08:32:13.699Z,10.20
2019-04-11T08:33:14.175Z,10.80
2019-04-11T08:34:13.435Z,9.90
2019-04-11T08:35:13.438Z,9.70
2019-04-11T08:36:13.764Z,10.00
2019-04-11T08:37:13.702Z,10.30
2019-04-11T08:38:13.465Z,10.50
2019-04-11T08:39:14.605Z,9.90
2019-04-11T08:40:13.557Z,10.30
2019-04-11T08:41:13.583Z,10.40
2019-04-11T08:42:13.491Z,9.70
2019-04-11T08:43:13.502Z,11.50
2019-04-11T08:44:13.510Z,10.80
2019-04-11T08:45:14.562Z,11.20
2019-04-11T08:46:13.525Z,10.70
2019-04-11T08:47:13.525Z,10.80
2019-04-11T08:48:13.532Z,11.10
2019-04-11T08:49:13.540Z,10.90
2019-04-11T08:50:14.349Z,11.10
2019-04-11T08:51:14.582Z,10.60
2019-04-11T08:52:13.917Z,10.20
2019-04-11T08:53:13.579Z,10.40
2019-04-11T08:54:13.585Z,10.50
2019-04-11T08:55:15.986Z,10.50
2019-04-11T08:56:14.654Z,9.80
2019-04-11T08:57:13.811Z,9.90
2019-04-11T08:58:14.133Z,10.30
2019-04-11T08:59:13.620Z,10.10
2019-04-11T09:00:13.772Z,10.20
2019-04-11T09:01:13.813Z,9.70
2019-04-11T09:02:13.640Z,10.50
2019-04-11T09:03:13.656Z,10.30
2019-04-11T09:04:15.002Z,9.60
2019-04-11T09:05:16.930Z,11.20
2019-04-11T09:06:14.698Z,10.30
2019-04-11T09:07:13.684Z,9.80
2019-04-11T09:08:14.190Z,10.80
2019-04-11T09:09:13.703Z,10.10
2019-04-11T09:10:13.712Z,10.00
2019-04-11T09:11:14.831Z,10.50
2019-04-11T09:12:14.215Z,9.90
2019-04-11T09:13:13.741Z,9.80
2019-04-11T09:14:13.835Z,10.20
2019-04-11T09:15:14.800Z,10.20
2019-04-11T09:16:13.772Z,10.40
2019-04-11T09:17:14.395Z,10.50
2019-04-11T09:18:15.242Z,10.00
2019-04-11T09:19:14.697Z,10.20
2019-04-11T09:20:13.803Z,10.70
2019-04-11T09:21:13.928Z,10.50
2019-04-11T09:22:15.029Z,9.70
2019-04-11T09:23:13.839Z,10.20
2019-04-11T09:24:15.219Z,10.70
2019-04-11T09:25:14.809Z,10.30
2019-04-11T09:26:14.011Z,10.20
2019-04-11T09:27:14.291Z,10.50
2019-04-11T09:28:13.880Z,9.50
2019-04-11T09:29:13.893Z,10.10
2019-04-11T09:30:15.676Z,10.20
2019-04-11T09:31:15.330Z,11.50
2019-04-11T09:32:13.915Z,10.00
2019-04-11T09:33:14.990Z,10.40
2019-04-11T09:34:13.933Z,10.30
2019-04-11T09:35:14.392Z,10.80
2019-04-11T09:36:13.955Z,10.50
2019-04-11T09:37:16.013Z,11.20
2019-04-11T09:38:14.019Z,9.80
2019-04-11T09:39:15.071Z,9.60
2019-04-11T09:40:15.262Z,9.30
2019-04-11T09:41:14.377Z,10.30
2019-04-11T09:42:14.002Z,10.40
2019-04-11T09:43:14.018Z,10.20
2019-04-11T09:44:14.854Z,10.00
2019-04-11T09:45:14.130Z,10.40
2019-04-11T09:46:14.455Z,8.70
2019-04-11T09:47:14.046Z,9.10
2019-04-11T09:48:15.287Z,9.50
2019-04-11T09:49:15.013Z,8.70
2019-04-11T09:50:14.068Z,9.30
2019-04-11T09:51:14.072Z,9.00
2019-04-11T09:52:14.339Z,8.20
2019-04-11T09:53:14.208Z,8.70
2019-04-11T09:54:14.089Z,7.90
2019-04-11T09:55:15.010Z,8.50
2019-04-11T09:56:15.136Z,7.60
2019-04-11T09:57:14.129Z,7.70
2019-04-11T09:58:15.232Z,7.70
2019-04-11T09:59:14.367Z,7.40
2019-04-11T10:00:14.407Z,8.50
2019-04-11T10:01:14.136Z,8.40
2019-04-11T10:02:14.549Z,9.00
2019-04-11T10:03:15.206Z,7.30
2019-04-11T10:04:14.402Z,10.30
2019-04-11T10:05:14.156Z,7.90
2019-04-11T10:06:14.164Z,8.10
2019-04-11T10:07:14.175Z,7.80
2019-04-11T10:08:14.862Z,8.80
2019-04-11T10:09:15.518Z,9.10
2019-04-11T10:10:14.868Z,7.80
2019-04-11T10:11:15.494Z,8.60
2019-04-11T10:12:14.207Z,8.20
2019-04-11T10:13:14.210Z,14.00
2019-04-11T10:14:15.268Z,8.40
2019-04-11T10:15:15.372Z,7.60
2019-04-11T10:16:14.237Z,7.70
2019-04-11T10:17:14.856Z,8.70
2019-04-11T10:18:22.887Z,8.30
2019-04-11T10:19:14.262Z,8.40
2019-04-11T10:20:14.278Z,10.30
2019-04-11T10:21:15.240Z,7.90
2019-04-11T10:22:15.114Z,8.10
2019-04-11T10:23:14.339Z,9.30
2019-04-11T10:24:16.654Z,8.30
2019-04-11T10:25:14.876Z,8.80
2019-04-11T10:26:14.312Z,9.30
2019-04-11T10:27:14.396Z,9.60
2019-04-11T10:28:15.363Z,8.50
2019-04-11T10:29:14.924Z,8.80
2019-04-11T10:30:15.216Z,8.80
2019-04-11T10:31:14.699Z,8.30
2019-04-11T10:32:14.915Z,8.20
2019-04-11T10:33:15.004Z,10.00
2019-04-11T10:34:14.378Z,8.40
2019-04-11T10:35:17.224Z,8.70
2019-04-11T10:36:14.645Z,9.50
2019-04-11T10:37:14.386Z,8.90
2019-04-11T10:38:14.393Z,9.20
2019-04-11T10:39:15.302Z,7.80
2019-04-11T10:40:15.564Z,9.40
2019-04-11T10:41:14.671Z,9.10
2019-04-11T10:42:14.784Z,9.40
2019-04-11T10:43:14.431Z,8.30
2019-04-11T10:44:14.431Z,9.00
2019-04-11T10:45:14.438Z,8.70
2019-04-11T10:46:15.401Z,9.70
2019-04-11T10:47:14.557Z,9.40
2019-04-11T10:48:14.466Z,9.40
2019-04-11T10:49:14.468Z,11.10
2019-04-11T10:50:15.485Z,8.20
2019-04-11T10:51:15.036Z,8.70
2019-04-11T10:52:14.506Z,8.10
2019-04-11T10:53:14.997Z,8.20
2019-04-11T10:54:15.569Z,8.90
2019-04-11T10:55:15.606Z,8.80
2019-04-11T10:56:14.511Z,9.80
2019-04-11T10:57:14.516Z,9.80
2019-04-11T10:58:14.521Z,8.40
2019-04-11T10:59:15.482Z,8.50
2019-04-11T11:00:15.646Z,8.30
2019-04-11T11:01:15.714Z,8.50
2019-04-11T11:02:15.425Z,8.70
2019-04-11T11:03:14.700Z,8.50
2019-04-11T11:04:15.738Z,7.70
2019-04-11T11:05:17.577Z,8.40
2019-04-11T11:06:15.561Z,8.20
2019-04-11T11:07:14.572Z,8.00
2019-04-11T11:08:15.357Z,8.30
2019-04-11T11:09:14.580Z,9.20
2019-04-11T11:10:15.396Z,9.00
2019-04-11T11:11:15.905Z,8.80
2019-04-11T11:12:14.802Z,8.30
2019-04-11T11:13:14.608Z,8.30
2019-04-11T11:14:14.615Z,8.30
2019-04-11T11:15:15.554Z,8.30
2019-04-11T11:16:14.623Z,8.10
2019-04-11T11:17:28.900Z,7.90
2019-04-11T11:18:38.228Z,9.50
2019-04-11T11:19:33.772Z,9.00
2019-04-11T11:20:24.396Z,8.30
2019-04-11T11:21:14.653Z,8.50
2019-04-11T11:22:14.734Z,7.70
2019-04-11T11:23:14.668Z,9.20
2019-04-11T11:24:15.513Z,10.50
2019-04-11T11:25:16.535Z,9.50
2019-04-11T11:26:19.820Z,9.20
2019-04-11T11:27:15.716Z,8.20
2019-04-11T11:28:15.840Z,12.10
2019-04-11T11:29:15.791Z,8.80
2019-04-11T11:30:14.702Z,9.20
2019-04-11T11:31:15.769Z,9.20
2019-04-11T11:32:14.713Z,9.30
2019-04-11T11:33:14.714Z,8.40
2019-04-11T11:34:19.616Z,8.50
2019-04-11T11:35:15.134Z,8.40
2019-04-11T11:36:15.238Z,8.70
2019-04-11T11:37:15.842Z,10.40
2019-04-11T11:38:14.729Z,8.60
2019-04-11T11:39:15.164Z,8.80
2019-04-11T11:40:16.750Z,10.00
2019-04-11T11:41:14.732Z,8.50
2019-04-11T11:42:14.731Z,8.60
2019-04-11T11:43:14.831Z,8.60
2019-04-11T11:44:15.930Z,8.90
2019-04-11T11:45:14.734Z,10.90
2019-04-11T11:46:14.734Z,11.60
2019-04-11T11:47:15.501Z,9.70
2019-04-11T11:48:18.530Z,9.70
2019-04-11T11:49:19.248Z,10.00
2019-04-11T11:50:18.768Z,9.40
2019-04-11T11:51:14.727Z,12.10
2019-04-11T11:52:15.157Z,10.00
2019-04-11T11:53:14.837Z,12.60
2019-04-11T11:54:15.605Z,9.00
2019-04-11T11:55:15.750Z,11.40
2019-04-11T11:56:15.881Z,9.80
2019-04-11T11:57:14.995Z,9.60
2019-04-11T11:58:16.983Z,10.80
2019-04-11T11:59:15.304Z,9.80
2019-04-11T12:00:14.960Z,11.10
2019-04-11T12:01:15.679Z,10.60
2019-04-11T12:02:17.373Z,12.00
2019-04-11T12:03:14.859Z,10.50
2019-04-11T12:04:14.827Z,9.20
2019-04-11T12:05:16.358Z,10.30
2019-04-11T12:06:19.743Z,10.60
2019-04-11T12:07:14.758Z,10.50
2019-04-11T12:08:16.482Z,8.40
2019-04-11T12:09:14.681Z,10.90
2019-04-11T12:10:15.282Z,10.40
2019-04-11T12:11:15.713Z,9.50
2019-04-11T12:12:15.616Z,9.70
2019-04-11T12:13:14.787Z,9.30
2019-04-11T12:14:15.794Z,10.30
2019-04-11T12:15:17.761Z,10.90
2019-04-11T12:16:19.275Z,9.50
2019-04-11T12:17:14.658Z,9.90
2019-04-11T12:18:17.201Z,10.50
2019-04-11T12:19:17.036Z,9.30
2019-04-11T12:20:16.468Z,10.20
2019-04-11T12:21:16.262Z,9.50
2019-04-11T12:22:15.908Z,10.70
2019-04-11T12:23:15.091Z,10.30
2019-04-11T12:24:15.468Z,11.10
2019-04-11T12:25:14.637Z,9.40
2019-04-11T12:26:16.439Z,9.90
2019-04-11T12:27:14.678Z,9.70
2019-04-11T12:28:15.279Z,9.80
2019-04-11T12:29:15.735Z,9.50
2019-04-11T12:30:15.660Z,10.00
2019-04-11T12:31:15.563Z,9.80
2019-04-11T12:32:14.873Z,9.30
2019-04-11T12:33:14.605Z,10.60
2019-04-11T12:34:14.601Z,9.90
2019-04-11T12:35:15.618Z,10.20
2019-04-11T12:36:14.749Z,11.70
2019-04-11T12:37:14.832Z,13.60
2019-04-11T12:38:14.584Z,9.90
2019-04-11T12:39:14.587Z,10.40
2019-04-11T12:40:14.581Z,9.60
2019-04-11T12:41:14.576Z,11.30
2019-04-11T12:42:14.570Z,10.00
2019-04-11T12:43:14.570Z,11.70
2019-04-11T12:44:14.567Z,11.60
2019-04-11T12:45:14.561Z,10.20
2019-04-11T12:46:14.561Z,10.60
2019-04-11T12:47:14.549Z,10.70
2019-04-11T12:48:14.545Z,10.60
2019-04-11T12:49:14.541Z,12.10
2019-04-11T12:50:14.541Z,10.80
2019-04-11T12:51:14.542Z,11.30
2019-04-11T12:52:14.539Z,10.70
2019-04-11T12:53:14.539Z,10.70
2019-04-11T12:54:14.533Z,10.80
2019-04-11T12:55:14.524Z,10.70
2019-04-11T12:56:14.526Z,10.70
2019-04-11T12:57:14.634Z,11.30
2019-04-11T12:58:14.517Z,11.20
2019-04-11T12:59:14.509Z,10.60
2019-04-11T13:00:14.511Z,10.90
2019-04-11T13:01:14.498Z,10.70
2019-04-11T13:02:14.497Z,10.10
2019-04-11T13:03:14.495Z,10.30
2019-04-11T13:04:14.590Z,10.00
2019-04-11T13:05:14.487Z,9.50
2019-04-11T13:06:14.484Z,10.50
2019-04-11T13:07:14.540Z,10.80
2019-04-11T13:08:14.470Z,10.30
2019-04-11T13:09:14.469Z,10.30
2019-04-11T13:10:14.466Z,10.90
2019-04-11T13:11:14.465Z,11.70
2019-04-11T13:12:14.462Z,10.70
2019-04-11T13:13:14.454Z,11.20
2019-04-11T13:14:14.451Z,10.90
2019-04-11T13:15:14.453Z,11.20
2019-04-11T13:16:14.448Z,12.20